Time;durP1;ratioP1;P1;durP2;ratioP2;P2;SDS_P1;SDS_P2;PMS_P1;PMS_P2;Temp;Humidity;BMP_temperature;BMP_pressure;BME280_temperature;BME280_humidity;BME280_pressure;Samples;Min_cycle;Max_cycle;Signal;HPM_P1;HPM_P2
2023/12/09 00:00:27;;;;;;;11.05;4.78;;;;;;;7.79;100.00;98652.75;5020484;28;20060;-77
2023/12/09 00:02:52;;;;;;;14.60;5.88;;;;;;;7.79;100.00;98653.56;5020428;28;20025;-77
2023/12/09 00:05:18;;;;;;;16.67;6.55;;;;;;;7.82;100.00;98655.81;5020357;28;20029;-77
2023/12/09 00:07:44;;;;;;;15.85;6.13;;;;;;;7.85;100.00;98652.72;5020467;28;20033;-77
2023/12/09 00:10:09;;;;;;;12.23;5.53;;;;;;;7.88;100.00;98648.81;5036857;28;20045;-78
2023/12/09 00:12:35;;;;;;;11.05;5.70;;;;;;;7.90;100.00;98639.53;5020051;28;20029;-77
2023/12/09 00:15:01;;;;;;;13.23;5.65;;;;;;;7.95;100.00;98630.06;5020292;28;20036;-78
2023/12/09 00:17:26;;;;;;;10.75;4.63;;;;;;;8.00;100.00;98615.03;5020320;28;20028;-77
2023/12/09 00:19:52;;;;;;;11.15;4.93;;;;;;;8.01;100.00;98613.16;5036695;28;20021;-78
2023/12/09 00:22:17;;;;;;;10.80;4.60;;;;;;;8.00;100.00;98615.03;5019825;28;20035;-78
2023/12/09 00:24:43;;;;;;;8.25;4.80;;;;;;;7.97;100.00;98607.41;5020154;28;20037;-79
2023/12/09 00:27:09;;;;;;;12.10;4.32;;;;;;;7.91;100.00;98601.06;5020225;28;20036;-78
2023/12/09 00:29:34;;;;;;;9.48;4.22;;;;;;;7.90;100.00;98604.75;5020147;28;20044;-79
2023/12/09 00:32:03;;;;;;;8.50;3.80;;;;;;;7.89;100.00;98592.41;5019789;28;20036;-78
2023/12/09 00:34:29;;;;;;;9.20;4.47;;;;;;;7.87;100.00;98586.44;5052551;28;20040;-78
2023/12/09 00:36:54;;;;;;;9.73;3.75;;;;;;;7.89;100.00;98581.72;5020379;28;20040;-79
2023/12/09 00:39:20;;;;;;;9.48;4.07;;;;;;;7.87;100.00;98574.94;5035980;28;20457;-79
2023/12/09 00:41:47;;;;;;;5.38;2.42;;;;;;;7.85;100.00;98569.78;5036146;28;20059;-77
2023/12/09 00:44:17;;;;;;;3.03;1.95;;;;;;;7.81;100.00;98563.22;5019781;28;20044;-78
2023/12/09 00:46:42;;;;;;;2.70;1.63;;;;;;;7.80;100.00;98553.53;5020196;28;20037;-78
2023/12/09 00:49:08;;;;;;;0.40;0.40;;;;;;;7.78;100.00;98547.59;5020019;28;20044;-78
2023/12/09 00:51:34;;;;;;;0.30;0.30;;;;;;;7.78;100.00;98530.69;5035698;28;20037;-78
2023/12/09 00:54:02;;;;;;;0.30;0.30;;;;;;;7.75;100.00;98518.56;5019646;28;20044;-77
2023/12/09 00:56:27;;;;;;;0.38;0.38;;;;;;;7.72;100.00;98510.97;5036507;28;20032;-77
2023/12/09 00:58:53;;;;;;;0.52;0.52;;;;;;;7.70;100.00;98494.34;5036008;28;20033;-77
2023/12/09 01:01:18;;;;;;;0.40;0.40;;;;;;;7.67;100.00;98484.03;5035867;28;20135;-77
2023/12/09 01:03:44;;;;;;;0.35;0.35;;;;;;;7.66;100.00;98453.00;5019668;28;20025;-77
2023/12/09 01:06:10;;;;;;;0.30;0.30;;;;;;;7.66;100.00;98431.59;5019663;28;20037;-77
2023/12/09 01:08:35;;;;;;;0.40;0.40;;;;;;;7.66;100.00;98415.56;5019323;28;20041;-76
2023/12/09 01:11:01;;;;;;;0.40;0.40;;;;;;;7.61;100.00;98410.03;5019487;28;20044;-76
2023/12/09 01:13:28;;;;;;;0.40;0.40;;;;;;;7.65;100.00;98401.38;5019362;28;20102;-76
2023/12/09 01:15:54;;;;;;;0.40;0.40;;;;;;;7.65;100.00;98381.81;5036138;28;20040;-77
2023/12/09 01:18:19;;;;;;;0.40;0.40;;;;;;;7.67;100.00;98371.72;5018951;28;20442;-77
2023/12/09 01:20:45;;;;;;;0.30;0.30;;;;;;;7.70;100.00;98328.50;5019132;28;20045;-77
2023/12/09 01:23:11;;;;;;;0.40;0.40;;;;;;;7.70;100.00;98293.72;5019236;28;20110;-77
2023/12/09 01:25:37;;;;;;;0.40;0.40;;;;;;;7.72;100.00;98307.69;5035932;28;20095;-77
2023/12/09 01:28:03;;;;;;;0.30;0.30;;;;;;;7.78;100.00;98309.50;5019471;28;20036;-77
2023/12/09 01:30:29;;;;;;;0.40;0.40;;;;;;;7.85;100.00;98304.09;5019258;28;20064;-77
2023/12/09 01:32:55;;;;;;;0.30;0.30;;;;;;;7.90;100.00;98302.41;5019204;28;20068;-76
2023/12/09 01:35:20;;;;;;;0.40;0.40;;;;;;;7.94;100.00;98294.78;5019426;28;20196;-76
2023/12/09 01:37:46;;;;;;;0.38;0.38;;;;;;;7.98;100.00;98287.13;5019397;28;20495;-77
2023/12/09 01:40:14;;;;;;;0.40;0.40;;;;;;;8.03;100.00;98266.69;5019179;28;20094;-77
2023/12/09 01:42:43;;;;;;;0.30;0.30;;;;;;;8.03;100.00;98269.34;5035308;28;20072;-77
2023/12/09 01:45:10;;;;;;;0.40;0.40;;;;;;;8.07;100.00;98254.50;5035959;28;20040;-77
2023/12/09 01:47:37;;;;;;;0.30;0.30;;;;;;;8.10;100.00;98224.63;5019333;28;20040;-77
2023/12/09 01:50:04;;;;;;;0.32;0.32;;;;;;;8.13;100.00;98218.81;5034870;28;20028;-77
2023/12/09 01:52:31;;;;;;;0.40;0.40;;;;;;;8.15;100.00;98205.22;5051627;28;20388;-76
2023/12/09 01:54:57;;;;;;;0.40;0.40;;;;;;;8.20;100.00;98188.47;5019234;28;20033;-77
2023/12/09 01:57:23;;;;;;;0.40;0.40;;;;;;;8.22;100.00;98187.22;5036212;28;20471;-77
2023/12/09 01:59:50;;;;;;;0.38;0.38;;;;;;;8.26;100.00;98166.19;5022550;28;20036;-77
2023/12/09 02:02:16;;;;;;;0.30;0.30;;;;;;;8.34;100.00;98150.63;5023049;28;20033;-76
2023/12/09 02:04:42;;;;;;;0.40;0.40;;;;;;;8.38;100.00;98132.25;5022726;28;20368;-77
2023/12/09 02:07:07;;;;;;;0.40;0.40;;;;;;;8.44;100.00;98123.34;5038861;28;20033;-77
2023/12/09 02:09:37;;;;;;;0.35;0.35;;;;;;;8.48;100.00;98119.16;5056518;28;20541;-77
2023/12/09 02:12:14;;;;;;;0.32;0.32;;;;;;;8.51;100.00;98099.94;5055188;28;20035;-77
2023/12/09 02:14:48;;;;;;;0.30;0.30;;;;;;;8.53;100.00;98103.22;5039156;28;20045;-77
2023/12/09 02:17:22;;;;;;;0.40;0.40;;;;;;;8.59;100.00;98082.75;5039173;28;20029;-77
2023/12/09 02:19:48;;;;;;;0.40;0.40;;;;;;;8.62;100.00;98066.22;5038959;28;20107;-77
2023/12/09 02:22:14;;;;;;;0.30;0.30;;;;;;;8.70;100.00;98060.53;5022561;28;20411;-77
2023/12/09 02:24:39;;;;;;;0.40;0.40;;;;;;;8.74;100.00;98058.22;5022423;28;20060;-76
2023/12/09 02:27:13;;;;;;;0.35;0.35;;;;;;;8.80;100.00;98039.34;5022367;28;20086;-77
2023/12/09 02:30:06;;;;;;;0.32;0.32;;;;;;;8.86;100.00;98026.06;5038093;28;20082;-77
2023/12/09 02:32:33;;;;;;;0.30;0.30;;;;;;;8.91;100.00;98053.81;5038648;28;20486;-77
2023/12/09 02:35:02;;;;;;;0.30;0.30;;;;;;;8.95;100.00;98054.19;5022316;28;20036;-77
2023/12/09 02:37:29;;;;;;;0.40;0.40;;;;;;;8.96;100.00;98055.81;5055293;28;20057;-76
2023/12/09 02:39:56;;;;;;;0.40;0.40;;;;;;;9.01;100.00;98048.69;5038297;28;20044;-77
2023/12/09 02:42:21;;;;;;;0.32;0.32;;;;;;;9.04;100.00;98036.69;5022007;28;20025;-77
2023/12/09 02:44:48;;;;;;;0.30;0.30;;;;;;;9.08;100.00;98015.63;5021726;28;20052;-76
2023/12/09 02:47:14;;;;;;;0.40;0.40;;;;;;;9.15;100.00;98018.97;5021693;28;20051;-76
2023/12/09 02:49:40;;;;;;;0.30;0.30;;;;;;;9.23;100.00;98029.34;5021717;28;20179;-76
2023/12/09 02:52:06;;;;;;;0.30;0.30;;;;;;;9.29;100.00;98027.59;5021769;28;20029;-76
2023/12/09 02:54:32;;;;;;;0.30;0.30;;;;;;;9.36;100.00;98025.63;5037975;28;20044;-77
2023/12/09 02:56:58;;;;;;;0.30;0.30;;;;;;;9.41;100.00;98023.03;5022679;28;20024;-77
2023/12/09 02:59:23;;;;;;;0.40;0.40;;;;;;;9.50;100.00;98016.28;5021817;28;20414;-77
2023/12/09 03:01:49;;;;;;;0.30;0.30;;;;;;;9.61;100.00;98007.38;5021769;28;20067;-78
2023/12/09 03:04:15;;;;;;;0.30;0.30;;;;;;;9.69;100.00;98000.84;5021517;28;20072;-77
2023/12/09 03:06:43;;;;;;;0.30;0.30;;;;;;;9.74;100.00;98005.47;5021692;28;20035;-78
2023/12/09 03:09:08;;;;;;;0.30;0.30;;;;;;;9.78;100.00;98010.13;5053235;28;20059;-77
2023/12/09 03:11:34;;;;;;;0.32;0.32;;;;;;;9.82;100.00;98005.94;5037797;28;20041;-77
2023/12/09 03:13:59;;;;;;;0.30;0.30;;;;;;;9.85;100.00;97983.16;5021594;28;20036;-77
2023/12/09 03:16:25;;;;;;;0.40;0.40;;;;;;;9.91;100.00;97993.75;5037527;28;20025;-76
2023/12/09 03:18:51;;;;;;;0.40;0.40;;;;;;;10.00;100.00;97991.53;5021399;28;20029;-77
2023/12/09 03:21:16;;;;;;;0.35;0.35;;;;;;;9.99;100.00;97989.06;5037596;28;20119;-76
2023/12/09 03:23:42;;;;;;;0.30;0.30;;;;;;;10.07;100.00;97983.31;5021376;28;20068;-77
2023/12/09 03:26:18;;;;;;;0.30;0.30;;;;;;;10.06;100.00;97987.88;5005192;28;20033;-77
2023/12/09 03:28:45;;;;;;;0.30;0.30;;;;;;;10.07;100.00;97981.44;5020947;28;20037;-77
2023/12/09 03:31:15;;;;;;;0.40;0.40;;;;;;;10.06;100.00;97979.81;5036919;28;20041;-77
2023/12/09 03:33:43;;;;;;;0.40;0.40;;;;;;;10.05;100.00;97964.75;5053875;28;20526;-77
2023/12/09 03:36:13;;;;;;;0.30;0.30;;;;;;;10.07;100.00;97956.47;5021151;28;20028;-78
2023/12/09 03:38:39;;;;;;;0.40;0.40;;;;;;;10.09;100.00;97951.66;5021415;28;20471;-77
2023/12/09 03:41:06;;;;;;;0.35;0.35;;;;;;;10.04;100.00;97948.91;5037393;28;20033;-77
2023/12/09 03:43:32;;;;;;;0.30;0.30;;;;;;;10.04;100.00;97949.69;5036994;28;20067;-76
2023/12/09 03:46:00;;;;;;;0.40;0.40;;;;;;;10.13;100.00;97947.44;5037017;28;20502;-77
2023/12/09 03:48:27;;;;;;;0.30;0.30;;;;;;;10.18;100.00;97954.78;5053567;28;20037;-77
2023/12/09 03:50:53;;;;;;;0.30;0.30;;;;;;;10.18;100.00;97938.66;5020481;28;20379;-77
2023/12/09 03:53:18;;;;;;;0.40;0.40;;;;;;;10.14;100.00;97938.34;5020533;28;20036;-77
2023/12/09 03:55:44;;;;;;;0.40;0.40;;;;;;;10.16;100.00;97935.38;5053832;28;20040;-78
2023/12/09 03:58:11;;;;;;;0.40;0.40;;;;;;;10.15;100.00;97936.47;5037028;28;20025;-77
2023/12/09 04:00:36;;;;;;;0.40;0.40;;;;;;;10.17;100.00;97928.97;5020941;28;20029;-77
2023/12/09 04:03:03;;;;;;;0.35;0.35;;;;;;;10.19;100.00;97927.69;5020697;28;20384;-77
2023/12/09 04:05:29;;;;;;;0.30;0.30;;;;;;;10.19;100.00;97925.00;5036854;28;20387;-76
2023/12/09 04:07:55;;;;;;;0.40;0.40;;;;;;;10.21;100.00;97922.88;5020559;28;20546;-77
2023/12/09 04:10:21;;;;;;;0.30;0.30;;;;;;;10.21;100.00;97922.88;5020228;28;20107;-76
2023/12/09 04:12:46;;;;;;;0.40;0.40;;;;;;;10.21;100.00;97920.19;5020252;28;20378;-76
2023/12/09 04:15:12;;;;;;;0.30;0.30;;;;;;;10.24;100.00;97911.66;5020403;28;20029;-77
2023/12/09 04:17:38;;;;;;;0.47;0.47;;;;;;;10.27;100.00;97913.88;5020325;28;20036;-77
2023/12/09 04:20:07;;;;;;;0.40;0.40;;;;;;;10.34;100.00;97919.88;5035913;28;20123;-77
2023/12/09 04:22:33;;;;;;;0.50;0.50;;;;;;;10.59;100.00;97913.31;5053321;28;20495;-77
2023/12/09 04:24:59;;;;;;;0.30;0.30;;;;;;;10.77;100.00;97917.63;5052823;28;20024;-77
2023/12/09 04:27:25;;;;;;;0.30;0.30;;;;;;;10.89;100.00;97896.81;5036584;28;20032;-77
2023/12/09 04:29:51;;;;;;;0.40;0.40;;;;;;;11.01;100.00;97904.78;5019873;28;20021;-77
2023/12/09 04:32:21;;;;;;;0.30;0.30;;;;;;;11.12;100.00;97911.91;5020012;28;20036;-77
2023/12/09 04:34:47;;;;;;;0.30;0.30;;;;;;;11.21;100.00;97909.59;5020352;28;20047;-77
2023/12/09 04:37:13;;;;;;;0.30;0.30;;;;;;;11.23;100.00;97908.28;5020103;28;20033;-77
2023/12/09 04:39:38;;;;;;;0.30;0.30;;;;;;;11.27;100.00;97892.44;5019818;28;20036;-77
2023/12/09 04:42:04;;;;;;;0.40;0.40;;;;;;;11.30;100.00;97904.59;5036398;28;20032;-78
2023/12/09 04:44:30;;;;;;;0.30;0.30;;;;;;;11.30;100.00;97910.81;5019903;28;20051;-77
2023/12/09 04:46:55;;;;;;;0.30;0.30;;;;;;;11.28;100.00;97912.91;5019938;28;20064;-78
2023/12/09 04:49:21;;;;;;;0.30;0.30;;;;;;;11.28;100.00;97904.84;5035933;28;20029;-78
2023/12/09 04:51:47;;;;;;;0.40;0.40;;;;;;;11.26;100.00;97908.84;5019730;28;20044;-78
2023/12/09 04:54:13;;;;;;;0.40;0.40;;;;;;;11.26;100.00;97915.03;5019756;28;20033;-78
2023/12/09 04:56:38;;;;;;;0.38;0.38;;;;;;;11.25;100.00;97913.44;5052857;28;20041;-78
2023/12/09 04:59:04;;;;;;;0.38;0.38;;;;;;;11.23;100.00;97915.53;5019529;28;20033;-78
2023/12/09 05:01:30;;;;;;;0.30;0.30;;;;;;;11.21;100.00;97914.97;5035724;28;20029;-78
2023/12/09 05:03:56;;;;;;;0.40;0.40;;;;;;;11.21;100.00;97918.47;5036124;28;20075;-78
2023/12/09 05:06:22;;;;;;;2.38;0.93;;;;;;;11.20;100.00;97914.16;5019730;28;20040;-78
2023/12/09 05:08:49;;;;;;;4.22;1.30;;;;;;;11.17;100.00;97914.66;5019329;28;20029;-77
2023/12/09 05:11:16;;;;;;;0.50;0.50;;;;;;;11.16;100.00;97933.72;5036435;28;20086;-78
2023/12/09 05:13:42;;;;;;;4.00;1.23;;;;;;;11.14;100.00;97936.69;5052364;28;20037;-78
2023/12/09 05:16:08;;;;;;;1.75;1.10;;;;;;;11.05;100.00;97929.28;5019570;28;20032;-78
2023/12/09 05:18:34;;;;;;;6.07;1.08;;;;;;;11.05;100.00;97945.41;5035834;28;20487;-77
2023/12/09 05:21:04;;;;;;;0.60;0.60;;;;;;;10.99;100.00;97948.03;5019553;28;20038;-78
2023/12/09 05:23:30;;;;;;;1.15;0.60;;;;;;;10.93;100.00;97950.91;5036104;28;20541;-77
2023/12/09 05:25:56;;;;;;;0.52;0.50;;;;;;;10.88;100.00;97959.72;5035629;28;20029;-79
2023/12/09 05:28:22;;;;;;;4.50;0.93;;;;;;;10.85;100.00;97965.59;5019263;28;20029;-79
2023/12/09 05:30:48;;;;;;;0.30;0.30;;;;;;;10.86;100.00;97969.06;5019569;28;20029;-77
2023/12/09 05:33:14;;;;;;;0.32;0.32;;;;;;;10.83;100.00;97977.63;5021354;28;20172;-77
2023/12/09 05:35:39;;;;;;;0.30;0.30;;;;;;;10.78;100.00;98005.25;5039906;28;20025;-77
2023/12/09 05:38:05;;;;;;;0.30;0.30;;;;;;;10.70;100.00;97994.91;5039077;28;20032;-77
2023/12/09 05:40:30;;;;;;;0.30;0.30;;;;;;;10.50;100.00;97992.69;5039903;28;20033;-77
2023/12/09 05:42:56;;;;;;;0.38;0.38;;;;;;;10.31;100.00;98002.84;5023272;28;20388;-77
2023/12/09 05:45:22;;;;;;;0.30;0.30;;;;;;;10.20;100.00;98014.44;5023138;28;20103;-77
2023/12/09 05:47:47;;;;;;;0.32;0.32;;;;;;;10.07;100.00;98015.53;5039351;28;20460;-78
2023/12/09 05:50:13;;;;;;;0.40;0.40;;;;;;;9.99;100.00;98015.91;5023087;28;20033;-77
2023/12/09 05:52:41;;;;;;;0.40;0.40;;;;;;;9.84;100.00;97997.63;5055953;28;20025;-77
2023/12/09 05:55:06;;;;;;;0.40;0.40;;;;;;;9.83;100.00;98014.78;5055674;28;20411;-77
2023/12/09 05:57:32;;;;;;;0.30;0.30;;;;;;;9.79;100.00;98016.31;5038910;28;20094;-78
2023/12/09 05:59:58;;;;;;;0.30;0.30;;;;;;;9.74;100.00;98025.09;5022989;28;20044;-78
2023/12/09 06:02:24;;;;;;;0.32;0.32;;;;;;;9.69;100.00;98033.84;5022969;28;20078;-78
2023/12/09 06:04:50;;;;;;;0.30;0.30;;;;;;;9.63;100.00;98024.06;5022583;28;20399;-78
2023/12/09 06:07:15;;;;;;;0.30;0.30;;;;;;;9.61;100.00;98041.44;5055426;28;20098;-78
2023/12/09 06:09:41;;;;;;;0.30;0.30;;;;;;;9.57;100.00;98033.03;5022796;28;20068;-78
2023/12/09 06:12:07;;;;;;;0.40;0.40;;;;;;;9.52;100.00;98035.63;5023262;28;20025;-77
2023/12/09 06:14:32;;;;;;;0.40;0.40;;;;;;;9.47;100.00;98046.22;5022656;28;20391;-78
2023/12/09 06:16:58;;;;;;;0.40;0.40;;;;;;;9.37;100.00;98038.81;5022640;28;20392;-78
2023/12/09 06:19:24;;;;;;;0.40;0.40;;;;;;;9.33;100.00;98052.91;5055310;28;20108;-77
2023/12/09 06:21:49;;;;;;;0.30;0.30;;;;;;;9.32;100.00;98048.59;5022482;28;20472;-78
2023/12/09 06:24:15;;;;;;;0.40;0.40;;;;;;;9.27;100.00;98061.88;5022527;28;20045;-78
2023/12/09 06:26:42;;;;;;;0.38;0.38;;;;;;;9.24;100.00;98081.94;5022154;28;20043;-77
2023/12/09 06:29:08;;;;;;;0.40;0.40;;;;;;;9.21;100.00;98071.69;5038879;28;20068;-78
2023/12/09 06:31:34;;;;;;;0.40;0.40;;;;;;;9.21;100.00;98083.22;5054991;28;20031;-78
2023/12/09 06:34:02;;;;;;;0.40;0.40;;;;;;;9.17;100.00;98067.81;5021971;28;20032;-79
2023/12/09 06:36:28;;;;;;;0.35;0.35;;;;;;;9.17;100.00;98079.34;5022375;28;20028;-78
2023/12/09 06:38:54;;;;;;;0.40;0.40;;;;;;;9.16;100.00;98076.94;5022779;28;20344;-78
2023/12/09 06:41:50;;;;;;;0.40;0.40;;;;;;;9.15;100.00;98064.56;5055035;28;20064;-78
2023/12/09 06:44:31;;;;;;;0.40;0.40;;;;;;;9.06;100.00;98080.16;5024644;28;20045;-78
2023/12/09 06:47:26;;;;;;;0.73;0.73;;;;;;;8.98;100.00;98053.72;5027870;28;20072;-78
2023/12/09 06:49:56;;;;;;;;;;;;;;;9.12;100.00;98078.41;5024280;28;20037;-78
2023/12/09 06:52:22;;;;;;;5.35;0.98;;;;;;;9.13;100.00;98090.75;5071662;28;20263;-78
2023/12/09 06:54:47;;;;;;;1.17;0.50;;;;;;;9.13;100.00;98088.94;5038376;28;20033;-78
2023/12/09 06:57:13;;;;;;;2.10;0.75;;;;;;;9.12;100.00;98092.63;5037961;28;20099;-78
2023/12/09 06:59:39;;;;;;;1.48;0.73;;;;;;;9.13;100.00;98098.81;5021959;28;20442;-77
2023/12/09 07:02:05;;;;;;;3.50;1.27;;;;;;;9.07;100.00;98100.56;5038229;28;20491;-78
2023/12/09 07:04:32;;;;;;;3.45;1.00;;;;;;;9.05;100.00;98102.66;5021831;28;20029;-78
2023/12/09 07:07:01;;;;;;;7.60;1.88;;;;;;;9.03;100.00;98104.75;5038216;28;20040;-78
2023/12/09 07:09:28;;;;;;;2.38;1.45;;;;;;;9.01;100.00;98112.22;5021650;28;20090;-78
2023/12/09 07:11:54;;;;;;;2.88;1.58;;;;;;;9.08;100.00;98109.44;5021654;28;20111;-78
2023/12/09 07:14:20;;;;;;;2.00;0.70;;;;;;;9.18;100.00;98126.59;5021611;28;20132;-78
2023/12/09 07:16:45;;;;;;;3.45;1.40;;;;;;;9.26;100.00;98136.13;5054445;28;20087;-78
2023/12/09 07:19:11;;;;;;;4.20;1.38;;;;;;;9.29;100.00;98151.78;5021071;28;20040;-78
2023/12/09 07:21:36;;;;;;;6.72;1.92;;;;;;;9.28;100.00;98147.44;5021418;28;20044;-78
2023/12/09 07:24:02;;;;;;;4.80;1.73;;;;;;;9.32;100.00;98156.66;5037269;28;20127;-79
2023/12/09 07:26:28;;;;;;;3.13;1.88;;;;;;;9.36;100.00;98173.09;5021323;28;20065;-78
2023/12/09 07:28:54;;;;;;;7.22;2.55;;;;;;;9.35;100.00;98174.16;5053885;28;20033;-78
2023/12/09 07:31:20;;;;;;;10.80;2.38;;;;;;;9.28;100.00;98168.09;5021279;28;20430;-79
2023/12/09 07:33:46;;;;;;;8.57;1.75;;;;;;;9.30;100.00;98174.03;5020471;28;20025;-79
2023/12/09 07:36:14;;;;;;;14.75;3.50;;;;;;;9.34;100.00;98180.56;5021960;28;20044;-79
2023/12/09 07:38:40;;;;;;;4.38;1.75;;;;;;;9.33;100.00;98193.16;5037289;28;20029;-79
2023/12/09 07:41:06;;;;;;;10.95;2.45;;;;;;;9.35;100.00;98200.97;5037590;28;20383;-79
2023/12/09 07:43:31;;;;;;;8.68;2.95;;;;;;;9.38;100.00;98184.44;5020702;28;20367;-78
2023/12/09 07:45:57;;;;;;;5.25;1.95;;;;;;;9.41;100.00;98210.78;5037400;28;20379;-79
2023/12/09 07:48:23;;;;;;;9.88;3.40;;;;;;;9.42;100.00;98204.34;5020876;28;20076;-79
2023/12/09 07:50:48;;;;;;;10.02;3.22;;;;;;;9.41;100.00;98206.22;5036899;28;20487;-79
2023/12/09 07:53:14;;;;;;;6.45;1.98;;;;;;;9.37;100.00;98221.16;5020232;28;20045;-79
2023/12/09 07:55:42;;;;;;;18.05;2.92;;;;;;;9.40;100.00;98212.66;5019738;28;20025;-79
2023/12/09 07:58:07;;;;;;;7.97;2.78;;;;;;;9.43;100.00;98222.09;5020803;28;20333;-79
2023/12/09 08:00:34;;;;;;;12.40;2.80;;;;;;;9.44;100.00;98216.50;5053764;28;20047;-78
2023/12/09 08:03:06;;;;;;;4.05;2.63;;;;;;;9.38;100.00;98216.59;5052586;28;20063;-79
2023/12/09 08:05:34;;;;;;;17.02;3.08;;;;;;;9.39;100.00;98223.59;5053167;28;20107;-79
2023/12/09 08:08:01;;;;;;;8.95;2.35;;;;;;;9.33;100.00;98227.19;5037381;28;20028;-79
2023/12/09 08:10:27;;;;;;;7.00;2.05;;;;;;;9.38;100.00;98225.47;5020443;28;20043;-79
2023/12/09 08:12:53;;;;;;;7.28;1.98;;;;;;;9.39;100.00;98218.22;5036941;28;20037;-79
2023/12/09 08:15:18;;;;;;;11.55;3.25;;;;;;;9.37;100.00;98228.41;5020126;28;20028;-80
2023/12/09 08:17:44;;;;;;;10.80;2.83;;;;;;;9.35;100.00;98235.84;5036248;28;20521;-79
2023/12/09 08:20:11;;;;;;;9.93;2.90;;;;;;;9.25;100.00;98226.47;5020198;28;20475;-79
2023/12/09 08:22:38;;;;;;;8.52;2.90;;;;;;;9.31;100.00;98240.81;5019538;28;20391;-80
2023/12/09 08:25:09;;;;;;;11.85;3.33;;;;;;;9.35;100.00;98239.34;5018696;28;20028;-80
2023/12/09 08:27:35;;;;;;;10.35;2.53;;;;;;;9.39;100.00;98242.38;5035069;28;20087;-79
2023/12/09 08:30:03;;;;;;;6.95;2.35;;;;;;;9.33;100.00;98246.78;5052293;28;20028;-79
2023/12/09 08:32:30;;;;;;;14.85;3.50;;;;;;;9.32;100.00;98253.22;5020504;28;20041;-79
2023/12/09 08:34:55;;;;;;;9.00;2.15;;;;;;;9.32;100.00;98247.84;5035916;28;20033;-79
2023/12/09 08:37:25;;;;;;;9.80;3.08;;;;;;;9.34;100.00;98250.28;5052633;28;20033;-79
2023/12/09 08:39:52;;;;;;;8.68;2.70;;;;;;;9.39;100.00;98263.81;5036790;28;20465;-79
2023/12/09 08:42:18;;;;;;;19.90;2.25;;;;;;;9.41;100.00;98280.50;5036240;28;20490;-79
2023/12/09 08:44:44;;;;;;;23.88;3.72;;;;;;;9.45;100.00;98268.28;5035826;28;20025;-79
2023/12/09 08:47:09;;;;;;;21.58;3.67;;;;;;;9.45;100.00;98265.59;5019706;28;20047;-79
2023/12/09 08:49:35;;;;;;;26.65;4.53;;;;;;;9.46;100.00;98288.69;5036070;28;20127;-79
2023/12/09 08:52:00;;;;;;;28.20;5.53;;;;;;;9.48;100.00;98305.38;5019577;28;20075;-79
2023/12/09 08:54:26;;;;;;;24.10;5.00;;;;;;;9.47;100.00;98298.34;5019580;28;20051;-78
2023/12/09 08:56:52;;;;;;;11.45;3.25;;;;;;;9.45;100.00;98297.78;5035617;28;20029;-79
2023/12/09 08:59:17;;;;;;;21.80;4.85;;;;;;;9.52;100.00;98303.03;5019390;28;20486;-78
2023/12/09 09:01:43;;;;;;;18.30;4.65;;;;;;;9.46;100.00;98296.75;5035433;28;20086;-78
2023/12/09 09:04:09;;;;;;;6.90;2.08;;;;;;;9.53;100.00;98302.81;5052344;28;20136;-79
2023/12/09 09:06:35;;;;;;;23.33;5.57;;;;;;;9.55;100.00;98303.44;5019379;28;20056;-78
2023/12/09 09:09:01;;;;;;;25.05;4.07;;;;;;;9.58;100.00;98324.44;5019315;28;20033;-80
2023/12/09 09:11:29;;;;;;;12.57;3.13;;;;;;;9.58;100.00;98312.84;5035836;28;20040;-78
2023/12/09 09:13:55;;;;;;;21.80;4.03;;;;;;;9.49;100.00;98309.69;5019039;28;20029;-78
2023/12/09 09:16:20;;;;;;;12.98;3.75;;;;;;;9.53;100.00;98328.84;5035808;28;20126;-78
2023/12/09 09:18:46;;;;;;;23.33;4.80;;;;;;;9.53;100.00;98328.84;5035538;28;20032;-78
2023/12/09 09:21:12;;;;;;;21.63;4.88;;;;;;;9.59;100.00;98328.72;5019410;28;20033;-78
2023/12/09 09:23:37;;;;;;;15.02;3.67;;;;;;;9.46;100.00;98316.31;5019408;28;20032;-79
2023/12/09 09:26:04;;;;;;;13.55;3.58;;;;;;;9.55;100.00;98343.66;5019331;28;20041;-78
2023/12/09 09:28:30;;;;;;;26.50;3.20;;;;;;;9.60;100.00;98325.00;5019308;28;20119;-79
2023/12/09 09:30:56;;;;;;;18.98;3.70;;;;;;;9.60;100.00;98325.00;5052116;28;20450;-77
2023/12/09 09:33:21;;;;;;;19.05;3.90;;;;;;;9.43;100.00;98337.44;5017551;28;20033;-81
2023/12/09 09:35:51;;;;;;;13.10;2.83;;;;;;;9.37;100.00;98346.41;5018136;28;20033;-80
2023/12/09 09:38:19;;;;;;;21.75;4.32;;;;;;;9.29;100.00;98349.38;5019769;28;20041;-81
2023/12/09 09:40:45;;;;;;;22.17;4.22;;;;;;;9.18;100.00;98354.47;5018975;28;20140;-80
2023/12/09 09:43:22;;;;;;;16.67;4.38;;;;;;;9.41;100.00;98352.94;5018779;28;20535;-80
2023/12/09 09:45:48;;;;;;;19.17;4.00;;;;;;;9.49;100.00;98328.47;5019228;28;20387;-80
2023/12/09 09:48:16;;;;;;;21.00;4.60;;;;;;;9.24;100.00;98353.56;5035188;28;20033;-80
2023/12/09 09:50:45;;;;;;;24.38;5.20;;;;;;;9.15;100.00;98360.25;5019076;28;20040;-80
2023/12/09 09:53:20;;;;;;;20.17;4.38;;;;;;;9.53;100.00;98361.84;5018885;28;20067;-80
2023/12/09 09:55:46;;;;;;;14.68;4.38;;;;;;;9.62;100.00;98365.03;5035213;28;20025;-81
2023/12/09 09:58:12;;;;;;;16.30;3.17;;;;;;;9.32;100.00;98392.66;5018948;28;20090;-81
2023/12/09 10:00:41;;;;;;;20.98;3.90;;;;;;;8.73;100.00;98412.88;5019037;28;20037;-83
2023/12/09 10:03:07;;;;;;;14.90;2.47;;;;;;;8.46;100.00;98417.69;5051664;28;20111;-81
2023/12/09 10:05:35;;;;;;;6.63;1.95;;;;;;;8.26;100.00;98426.69;5034861;28;20459;-83
2023/12/09 10:08:03;;;;;;;4.45;1.80;;;;;;;8.06;100.00;98409.94;5035553;28;20538;-80
2023/12/09 10:10:29;;;;;;;3.20;1.30;;;;;;;7.85;100.00;98413.78;5019274;28;20045;-80
2023/12/09 10:12:55;;;;;;;6.45;1.55;;;;;;;7.75;100.00;98449.03;5018441;28;20399;-80
2023/12/09 10:15:21;;;;;;;5.70;2.60;;;;;;;7.81;100.00;98458.88;5018529;28;20032;-80
2023/12/09 10:17:46;;;;;;;3.83;2.45;;;;;;;8.18;100.00;98439.50;5018499;28;20041;-80
2023/12/09 10:20:13;;;;;;;5.25;1.38;;;;;;;8.65;100.00;98448.81;5021467;28;20044;-81
2023/12/09 10:22:38;;;;;;;2.53;1.75;;;;;;;8.70;100.00;98443.63;5038501;28;20044;-80
2023/12/09 10:25:05;;;;;;;1.95;0.95;;;;;;;8.82;100.00;98456.31;5022070;28;20036;-80
2023/12/09 10:27:30;;;;;;;2.25;1.13;;;;;;;8.89;100.00;98462.41;5038529;28;20021;-81
2023/12/09 10:29:56;;;;;;;2.95;1.02;;;;;;;9.10;100.00;98453.94;5022385;28;20037;-81
2023/12/09 10:32:23;;;;;;;9.77;2.33;;;;;;;9.37;100.00;98477.81;5038697;28;20120;-81
2023/12/09 10:34:49;;;;;;;4.22;1.33;;;;;;;9.54;100.00;98461.91;5022003;28;20446;-81
2023/12/09 10:37:16;;;;;;;6.70;2.47;;;;;;;9.54;100.00;98486.88;5021732;28;20523;-81
2023/12/09 10:39:42;;;;;;;8.98;1.67;;;;;;;9.50;100.00;98522.41;5038220;28;20127;-81
2023/12/09 10:42:15;;;;;;;9.57;2.55;;;;;;;9.44;100.00;98497.31;5038160;28;20094;-82
2023/12/09 10:44:41;;;;;;;8.95;2.33;;;;;;;9.41;100.00;98514.66;5038723;28;20041;-81
2023/12/09 10:47:07;;;;;;;8.07;2.60;;;;;;;9.34;100.00;98521.16;5038352;28;20182;-82
2023/12/09 10:49:33;;;;;;;2.70;1.65;;;;;;;9.31;100.00;98541.19;5037922;28;20429;-82
2023/12/09 10:51:59;;;;;;;9.27;2.17;;;;;;;9.32;100.00;98542.03;5037810;28;20033;-82
2023/12/09 10:54:24;;;;;;;14.27;3.17;;;;;;;9.34;100.00;98550.66;5021550;28;20024;-82
2023/12/09 10:56:50;;;;;;;14.13;2.50;;;;;;;9.42;100.00;98550.34;5038185;28;20467;-84
2023/12/09 10:59:22;;;;;;;6.78;2.65;;;;;;;9.57;100.00;98550.81;5038041;28;20394;-84
2023/12/09 11:01:48;;;;;;;9.10;2.17;;;;;;;9.71;100.00;98572.13;5054606;28;20396;-84
2023/12/09 11:04:14;;;;;;;6.60;2.17;;;;;;;9.80;100.00;98587.72;5021613;28;20048;-84
2023/12/09 11:06:41;;;;;;;9.40;3.47;;;;;;;9.99;100.00;98582.34;5041552;28;20032;-83
2023/12/09 11:09:08;;;;;;;10.82;3.20;;;;;;;10.17;100.00;98576.13;5028585;28;20040;-84
2023/12/09 11:11:36;;;;;;;5.03;1.63;;;;;;;10.27;100.00;98573.72;5023889;28;20033;-84
2023/12/09 11:14:07;;;;;;;4.03;1.40;;;;;;;10.30;100.00;98582.19;5038586;28;20410;-83
2023/12/09 11:16:33;;;;;;;8.90;3.03;;;;;;;10.49;100.00;98591.00;5021968;28;20036;-84
2023/12/09 11:18:59;;;;;;;8.60;2.38;;;;;;;10.51;100.00;98590.78;5021984;28;20475;-84
2023/12/09 11:21:30;;;;;;;2.38;1.35;;;;;;;10.47;100.00;98584.22;5054444;28;20029;-84
2023/12/09 11:23:57;;;;;;;9.13;2.22;;;;;;;10.08;100.00;98583.66;5021790;28;20032;-83
2023/12/09 11:26:31;;;;;;;5.47;1.85;;;;;;;9.89;100.00;98605.16;5037725;28;20036;-84